Time;durP1;ratioP1;P1;durP2;ratioP2;P2;SDS_P1;SDS_P2;PMS_P1;PMS_P2;Temp;Humidity;BMP_temperature;BMP_pressure;BME280_temperature;BME280_humidity;BME280_pressure;Samples;Min_cycle;Max_cycle;Signal;HPM_P1;HPM_P2
2021/01/26 00:00:50;;;;;;;19.47;12.20;;;;;;;;;;5083822;28;20031;-75
2021/01/26 00:03:15;;;;;;;14.00;8.60;;;;;;;;;;5089064;28;20047;-75
2021/01/26 00:05:41;;;;;;;19.27;12.63;;;;;;;;;;5081955;28;20038;-74
2021/01/26 00:08:06;;;;;;;13.97;6.97;;;;;;;;;;5088418;28;20027;-71
2021/01/26 00:10:32;;;;;;;17.63;10.53;;;;;;;;;;5076768;28;20020;-74
2021/01/26 00:12:57;;;;;;;17.00;11.93;;;;;;;;;;5087016;28;20008;-75
2021/01/26 00:15:22;;;;;;;20.33;12.60;;;;;;;;;;5085407;28;20012;-75
2021/01/26 00:17:50;;;;;;;19.67;11.70;;;;;;;;;;5082472;28;20035;-75
2021/01/26 00:20:16;;;;;;;16.27;8.87;;;;;;;;;;5092518;28;20019;-75
2021/01/26 00:22:41;;;;;;;12.90;7.40;;;;;;;;;;5095082;28;20016;-74
2021/01/26 00:25:08;;;;;;;18.67;11.53;;;;;;;;;;5093052;28;20307;-74
2021/01/26 00:27:33;;;;;;;12.20;8.07;;;;;;;;;;5095817;28;20434;-74
2021/01/26 00:29:58;;;;;;;14.73;7.87;;;;;;;;;;5093497;28;20020;-73
2021/01/26 00:32:24;;;;;;;19.97;10.83;;;;;;;;;;5094151;28;20394;-74
2021/01/26 00:34:49;;;;;;;10.97;5.80;;;;;;;;;;5094287;28;20485;-75
2021/01/26 00:37:14;;;;;;;12.70;5.93;;;;;;;;;;5094090;28;20016;-75
2021/01/26 00:39:39;;;;;;;11.50;6.47;;;;;;;;;;5093148;28;20020;-74
2021/01/26 00:42:05;;;;;;;19.60;12.13;;;;;;;;;;5095323;28;20095;-75
2021/01/26 00:44:30;;;;;;;12.40;8.33;;;;;;;;;;5095597;28;20020;-75
2021/01/26 00:46:55;;;;;;;11.67;5.60;;;;;;;;;;5086943;28;20023;-74
2021/01/26 00:49:21;;;;;;;12.20;6.53;;;;;;;;;;5090629;28;20101;-73
2021/01/26 00:51:46;;;;;;;23.13;16.40;;;;;;;;;;5086159;28;20016;-73
2021/01/26 00:54:11;;;;;;;18.40;11.93;;;;;;;;;;5093700;28;20035;-74
2021/01/26 00:56:36;;;;;;;17.33;12.00;;;;;;;;;;5091355;28;20387;-74
2021/01/26 00:59:02;;;;;;;19.60;13.83;;;;;;;;;;5088678;28;20448;-74
2021/01/26 01:01:27;;;;;;;18.47;9.83;;;;;;;;;;5082127;28;20391;-75
2021/01/26 01:03:52;;;;;;;10.60;5.97;;;;;;;;;;5091684;28;20039;-75
2021/01/26 01:06:17;;;;;;;15.03;9.57;;;;;;;;;;5092320;28;20041;-75
2021/01/26 01:08:43;;;;;;;17.00;9.03;;;;;;;;;;5093829;28;20496;-75
2021/01/26 01:11:08;;;;;;;16.03;10.77;;;;;;;;;;5094232;28;20459;-76
2021/01/26 01:13:33;;;;;;;16.43;8.23;;;;;;;;;;5073662;28;20047;-76
2021/01/26 01:15:59;;;;;;;19.47;11.47;;;;;;;;;;5077182;28;20790;-76
2021/01/26 01:18:24;;;;;;;16.03;9.87;;;;;;;;;;5094377;28;20370;-75
2021/01/26 01:20:49;;;;;;;16.47;10.83;;;;;;;;;;5094765;28;20012;-75
2021/01/26 01:23:15;;;;;;;17.13;10.50;;;;;;;;;;5093362;28;20024;-75
2021/01/26 01:25:40;;;;;;;16.77;10.63;;;;;;;;;;5091329;28;20114;-73
2021/01/26 01:28:05;;;;;;;19.17;11.23;;;;;;;;;;5093220;28;20410;-74
2021/01/26 01:30:33;;;;;;;23.23;12.00;;;;;;;;;;5091428;28;20027;-74
2021/01/26 01:32:58;;;;;;;15.93;9.40;;;;;;;;;;5088638;28;20028;-74
2021/01/26 01:35:23;;;;;;;18.07;10.70;;;;;;;;;;5070331;28;20029;-74
2021/01/26 01:37:49;;;;;;;16.67;12.53;;;;;;;;;;5077778;28;20406;-74
2021/01/26 01:40:34;;;;;;;14.17;9.40;;;;;;;;;;5092674;28;20029;-76
2021/01/26 01:42:59;;;;;;;13.87;8.50;;;;;;;;;;5092661;28;20024;-75
2021/01/26 01:45:25;;;;;;;9.07;6.50;;;;;;;;;;5090850;28;20458;-74
2021/01/26 01:47:55;;;;;;;13.60;9.53;;;;;;;;;;5092934;28;20028;-73
2021/01/26 01:50:25;;;;;;;14.67;8.80;;;;;;;;;;5080232;28;20550;-74
2021/01/26 01:52:54;;;;;;;14.40;9.07;;;;;;;;;;5090545;28;20106;-74
2021/01/26 01:55:20;;;;;;;17.73;9.97;;;;;;;;;;5091330;28;20032;-75
2021/01/26 01:57:50;;;;;;;14.27;8.83;;;;;;;;;;5093058;28;20023;-75
2021/01/26 02:00:16;;;;;;;14.63;8.77;;;;;;;;;;5090589;28;20038;-71
2021/01/26 02:02:42;;;;;;;17.13;9.57;;;;;;;;;;5093434;28;20020;-74
2021/01/26 02:05:08;;;;;;;13.90;9.07;;;;;;;;;;5091388;28;20051;-75
2021/01/26 02:07:34;;;;;;;14.63;7.27;;;;;;;;;;5091565;28;20128;-75
2021/01/26 02:09:59;;;;;;;14.53;9.50;;;;;;;;;;5091979;28;20522;-74
2021/01/26 02:12:24;;;;;;;15.73;12.57;;;;;;;;;;5092889;28;20039;-76
2021/01/26 02:14:53;;;;;;;15.00;10.17;;;;;;;;;;5091149;28;20454;-75
2021/01/26 02:17:36;;;;;;;14.20;9.50;;;;;;;;;;5083299;28;20029;-75
2021/01/26 02:20:13;;;;;;;15.00;9.67;;;;;;;;;;5083672;28;20082;-75
2021/01/26 02:23:08;;;;;;;13.20;9.17;;;;;;;;;;5092750;28;20023;-75
2021/01/26 02:26:08;;;;;;;15.93;10.57;;;;;;;;;;5007848;28;20030;-74
2021/01/26 02:28:52;;;;;;;16.27;8.97;;;;;;;;;;4952199;29;20043;-74
2021/01/26 02:31:27;;;;;;;16.13;8.73;;;;;;;;;;4951148;28;20039;-74
2021/01/26 02:34:10;;;;;;;13.70;8.90;;;;;;;;;;4937118;29;20031;-75
2021/01/26 02:36:36;;;;;;;14.50;8.97;;;;;;;;;;4949286;29;20458;-74
2021/01/26 02:39:01;;;;;;;17.27;9.23;;;;;;;;;;4952183;29;20023;-75
2021/01/26 02:41:45;;;;;;;15.83;9.23;;;;;;;;;;4935812;29;20027;-75
2021/01/26 02:44:29;;;;;;;15.57;8.73;;;;;;;;;;4951435;29;20479;-74
2021/01/26 02:47:04;;;;;;;13.50;8.40;;;;;;;;;;4934558;29;20035;-75
2021/01/26 02:49:39;;;;;;;13.45;8.93;;;;;;;;;;4932819;29;20631;-76
2021/01/26 02:52:08;;;;;;;13.15;8.07;;;;;;;;;;4950790;28;20118;-75
2021/01/26 02:54:42;;;;;;;14.53;7.70;;;;;;;;;;4936167;29;20023;-75
2021/01/26 02:57:17;;;;;;;10.93;7.18;;;;;;;;;;4949854;29;20122;-75
2021/01/26 02:59:55;;;;;;;12.73;6.80;;;;;;;;;;4951469;29;20055;-74
2021/01/26 03:02:23;;;;;;;10.90;6.73;;;;;;;;;;5005857;28;20117;-74
2021/01/26 03:05:18;;;;;;;11.23;7.50;;;;;;;;;;5070498;28;20103;-74
2021/01/26 03:07:47;;;;;;;14.40;8.27;;;;;;;;;;5028887;28;20551;-74
2021/01/26 03:10:14;;;;;;;12.47;7.90;;;;;;;;;;5050450;28;20024;-74
2021/01/26 03:12:42;;;;;;;12.90;7.80;;;;;;;;;;5030156;28;20033;-76
2021/01/26 03:15:14;;;;;;;13.37;7.90;;;;;;;;;;5011044;28;20354;-75
2021/01/26 03:17:52;;;;;;;15.53;7.53;;;;;;;;;;5041838;28;20036;-75
2021/01/26 03:20:28;;;;;;;14.93;8.70;;;;;;;;;;5047715;28;20048;-75
2021/01/26 03:22:54;;;;;;;12.73;8.40;;;;;;;;;;5044194;28;20028;-75
2021/01/26 03:25:22;;;;;;;12.90;8.50;;;;;;;;;;5046837;28;20048;-75
2021/01/26 03:27:48;;;;;;;13.03;8.27;;;;;;;;;;5049362;28;20148;-74
2021/01/26 03:30:18;;;;;;;16.37;9.23;;;;;;;;;;5032810;28;20532;-75
2021/01/26 03:32:49;;;;;;;13.23;7.93;;;;;;;;;;5033193;28;20033;-75
2021/01/26 03:35:15;;;;;;;11.37;7.70;;;;;;;;;;5027358;28;20033;-73
2021/01/26 03:37:42;;;;;;;15.63;10.20;;;;;;;;;;5030607;28;20055;-73
2021/01/26 03:40:07;;;;;;;13.90;8.80;;;;;;;;;;5049445;28;20504;-74
2021/01/26 03:42:35;;;;;;;13.50;8.07;;;;;;;;;;5031725;28;20065;-75
2021/01/26 03:45:00;;;;;;;16.07;9.67;;;;;;;;;;5084620;28;20043;-75
2021/01/26 03:47:33;;;;;;;14.83;9.13;;;;;;;;;;5090339;28;20028;-75
2021/01/26 03:50:10;;;;;;;14.87;10.03;;;;;;;;;;5089678;28;20043;-75
2021/01/26 03:52:39;;;;;;;12.03;7.93;;;;;;;;;;5090352;28;20024;-75
2021/01/26 03:55:11;;;;;;;15.30;11.17;;;;;;;;;;5091760;28;21094;-75
2021/01/26 03:57:39;;;;;;;16.63;9.77;;;;;;;;;;5094320;28;20027;-74
2021/01/26 04:00:08;;;;;;;15.67;10.77;;;;;;;;;;5096097;28;20020;-74
2021/01/26 04:02:52;;;;;;;13.07;8.43;;;;;;;;;;5091170;28;20107;-74
2021/01/26 04:05:20;;;;;;;14.73;8.90;;;;;;;;;;5093175;28;20322;-74
2021/01/26 04:07:49;;;;;;;14.90;9.23;;;;;;;;;;5095750;28;20422;-74
2021/01/26 04:10:20;;;;;;;17.10;10.60;;;;;;;;;;5096236;28;20031;-73
2021/01/26 04:12:47;;;;;;;13.23;8.90;;;;;;;;;;5094962;28;20032;-74
2021/01/26 04:15:18;;;;;;;13.80;8.77;;;;;;;;;;5091390;28;20020;-74
2021/01/26 04:17:44;;;;;;;15.73;9.23;;;;;;;;;;5094979;28;20533;-74
2021/01/26 04:20:17;;;;;;;15.03;9.43;;;;;;;;;;5095868;28;20051;-72
2021/01/26 04:22:42;;;;;;;14.33;8.50;;;;;;;;;;5087138;28;20024;-75
2021/01/26 04:25:26;;;;;;;16.13;9.27;;;;;;;;;;5093072;28;20663;-74
2021/01/26 04:27:51;;;;;;;13.80;9.03;;;;;;;;;;5095078;28;20431;-75
2021/01/26 04:30:17;;;;;;;14.27;8.53;;;;;;;;;;5095572;28;20016;-74
2021/01/26 04:32:42;;;;;;;13.73;9.03;;;;;;;;;;5090123;28;20024;-74
2021/01/26 04:35:07;;;;;;;14.90;9.53;;;;;;;;;;5090954;28;20032;-74
2021/01/26 04:37:32;;;;;;;15.73;10.53;;;;;;;;;;5093599;28;20077;-74
2021/01/26 04:39:58;;;;;;;14.33;8.67;;;;;;;;;;5094446;28;20178;-75
2021/01/26 04:42:26;;;;;;;12.37;8.23;;;;;;;;;;5081627;28;20078;-75
2021/01/26 04:44:51;;;;;;;13.33;8.47;;;;;;;;;;5092005;28;20042;-75
2021/01/26 04:47:16;;;;;;;12.07;7.23;;;;;;;;;;5092616;28;20107;-75
2021/01/26 04:50:02;;;;;;;12.97;7.97;;;;;;;;;;5095191;28;20031;-74
2021/01/26 04:52:47;;;;;;;14.32;9.82;;;;;;;;;;5041463;28;20050;-75
2021/01/26 04:55:18;;;;;;;14.15;8.95;;;;;;;;;;5078249;28;20028;-74
2021/01/26 04:57:49;;;;;;;15.33;10.83;;;;;;;;;;5094143;28;20051;-73
2021/01/26 05:00:21;;;;;;;13.03;8.07;;;;;;;;;;5093073;28;20106;-73
2021/01/26 05:02:59;;;;;;;13.10;7.77;;;;;;;;;;5092583;28;20073;-75
2021/01/26 05:05:25;;;;;;;13.63;8.97;;;;;;;;;;5073535;28;20133;-74
2021/01/26 05:07:51;;;;;;;13.47;8.27;;;;;;;;;;5094062;28;20028;-74
2021/01/26 05:10:36;;;;;;;13.00;9.00;;;;;;;;;;5091612;28;20027;-74
2021/01/26 05:13:05;;;;;;;13.80;8.90;;;;;;;;;;5094142;28;20054;-75
2021/01/26 05:15:33;;;;;;;13.40;8.37;;;;;;;;;;5091757;28;20327;-75
2021/01/26 05:18:02;;;;;;;13.27;8.70;;;;;;;;;;5094519;28;20081;-73
2021/01/26 05:20:28;;;;;;;10.47;7.30;;;;;;;;;;5074868;28;20013;-75
2021/01/26 05:22:57;;;;;;;10.63;6.50;;;;;;;;;;5091175;28;20020;-73
2021/01/26 05:25:23;;;;;;;11.07;8.03;;;;;;;;;;5075009;28;20764;-75
2021/01/26 05:27:49;;;;;;;11.30;7.23;;;;;;;;;;5087095;28;20083;-74
2021/01/26 05:30:28;;;;;;;10.07;6.73;;;;;;;;;;5073922;28;20048;-74
2021/01/26 05:32:54;;;;;;;10.47;6.90;;;;;;;;;;5081786;28;20020;-74
2021/01/26 05:35:20;;;;;;;13.53;7.63;;;;;;;;;;5090983;28;20027;-75
2021/01/26 05:37:50;;;;;;;13.03;9.00;;;;;;;;;;5092984;28;20375;-72
2021/01/26 05:40:21;;;;;;;13.77;8.50;;;;;;;;;;5094238;28;20020;-73
2021/01/26 05:42:57;;;;;;;15.87;9.93;;;;;;;;;;5092604;28;20020;-73
2021/01/26 05:45:24;;;;;;;13.43;9.67;;;;;;;;;;5090967;28;20391;-73
2021/01/26 05:48:08;;;;;;;13.47;9.50;;;;;;;;;;5093590;28;20028;-73
2021/01/26 05:50:35;;;;;;;13.60;9.43;;;;;;;;;;5082810;28;20190;-73
2021/01/26 05:53:04;;;;;;;15.43;10.23;;;;;;;;;;5090357;28;20051;-73
2021/01/26 05:55:30;;;;;;;15.60;10.60;;;;;;;;;;5089368;28;20375;-74
2021/01/26 05:58:04;;;;;;;15.20;10.73;;;;;;;;;;5093706;28;20016;-73
2021/01/26 06:00:30;;;;;;;16.02;12.15;;;;;;;;;;5093022;28;20020;-73
2021/01/26 06:03:04;;;;;;;16.17;10.00;;;;;;;;;;5092631;28;20069;-72
2021/01/26 06:05:30;;;;;;;15.55;11.45;;;;;;;;;;5088824;28;20028;-74
2021/01/26 06:08:06;;;;;;;15.63;9.23;;;;;;;;;;5090035;28;20024;-73
2021/01/26 06:10:32;;;;;;;15.53;10.57;;;;;;;;;;5093353;28;20020;-74
2021/01/26 06:12:58;;;;;;;16.13;10.27;;;;;;;;;;5090871;28;20039;-73
2021/01/26 06:15:25;;;;;;;15.53;11.90;;;;;;;;;;5086984;28;20028;-74
2021/01/26 06:17:50;;;;;;;16.17;10.80;;;;;;;;;;5080373;28;20166;-74
2021/01/26 06:20:20;;;;;;;14.27;9.57;;;;;;;;;;5088807;28;20506;-74
2021/01/26 06:22:46;;;;;;;15.80;11.23;;;;;;;;;;5093414;28;20497;-73
2021/01/26 06:25:19;;;;;;;15.63;9.93;;;;;;;;;;5089077;28;20361;-73
2021/01/26 06:27:50;;;;;;;14.27;10.30;;;;;;;;;;5085255;28;20047;-73
2021/01/26 06:30:20;;;;;;;16.13;10.97;;;;;;;;;;5087677;28;20470;-74
2021/01/26 06:33:04;;;;;;;11.70;8.93;;;;;;;;;;5091314;28;20024;-73
2021/01/26 06:35:37;;;;;;;12.70;9.10;;;;;;;;;;5089844;28;20016;-74
2021/01/26 06:38:08;;;;;;;13.13;8.67;;;;;;;;;;5091299;28;20020;-73
2021/01/26 06:40:33;;;;;;;13.53;9.10;;;;;;;;;;5089624;28;20019;-73
2021/01/26 06:43:04;;;;;;;15.67;10.60;;;;;;;;;;5076536;28;20527;-73
2021/01/26 06:45:32;;;;;;;14.47;9.23;;;;;;;;;;5085066;28;20379;-73
2021/01/26 06:48:13;;;;;;;12.93;10.13;;;;;;;;;;5091285;28;20390;-73
2021/01/26 06:51:01;;;;;;;13.40;10.30;;;;;;;;;;5091838;28;20384;-74
2021/01/26 06:53:42;;;;;;;13.10;10.47;;;;;;;;;;5062522;28;20036;-73
2021/01/26 06:56:25;;;;;;;12.60;8.93;;;;;;;;;;5081138;28;20013;-74
2021/01/26 06:59:00;;;;;;;11.97;9.03;;;;;;;;;;5091554;28;20027;-74
2021/01/26 07:01:43;;;;;;;12.37;9.97;;;;;;;;;;5091558;28;20016;-74
2021/01/26 07:04:21;;;;;;;14.23;11.87;;;;;;;;;;5093091;28;20261;-74
2021/01/26 07:06:52;;;;;;;12.80;11.20;;;;;;;;;;5083837;28;20016;-74
2021/01/26 07:09:37;;;;;;;11.53;8.90;;;;;;;;;;5083148;28;20082;-74
2021/01/26 07:12:21;;;;;;;10.87;8.00;;;;;;;;;;5087650;28;20028;-74
2021/01/26 07:14:55;;;;;;;15.13;11.80;;;;;;;;;;5090670;28;20024;-74
2021/01/26 07:17:30;;;;;;;14.80;12.63;;;;;;;;;;5097496;28;20375;-74
2021/01/26 07:19:58;;;;;;;15.80;11.70;;;;;;;;;;5092541;28;20417;-74
2021/01/26 07:22:23;;;;;;;17.03;11.20;;;;;;;;;;5083620;28;20446;-69
2021/01/26 07:25:01;;;;;;;18.77;12.90;;;;;;;;;;5077967;28;20072;-73
2021/01/26 07:27:45;;;;;;;17.33;12.03;;;;;;;;;;5078930;28;20032;-73
2021/01/26 07:30:15;;;;;;;15.57;12.10;;;;;;;;;;5092585;28;20054;-72
2021/01/26 07:32:52;;;;;;;17.30;12.17;;;;;;;;;;5084209;28;20390;-73
2021/01/26 07:35:36;;;;;;;17.07;11.30;;;;;;;;;;5084140;28;20596;-73
2021/01/26 07:38:06;;;;;;;19.20;14.33;;;;;;;;;;5087229;28;20041;-74
2021/01/26 07:40:33;;;;;;;16.73;12.00;;;;;;;;;;5076956;28;20380;-73
2021/01/26 07:43:10;;;;;;;20.17;13.33;;;;;;;;;;5072385;28;20493;-73
2021/01/26 07:45:45;;;;;;;19.53;13.33;;;;;;;;;;5081662;28;20059;-72
2021/01/26 07:48:18;;;;;;;19.23;12.40;;;;;;;;;;5077327;28;20020;-73
2021/01/26 07:50:45;;;;;;;18.77;13.80;;;;;;;;;;5091582;28;20012;-74
2021/01/26 07:53:21;;;;;;;22.03;13.97;;;;;;;;;;5089972;28;20035;-73
2021/01/26 07:55:49;;;;;;;19.00;15.63;;;;;;;;;;5083646;28;20109;-72
2021/01/26 07:58:15;;;;;;;20.40;15.70;;;;;;;;;;5087708;28;20026;-72
2021/01/26 08:00:43;;;;;;;19.47;12.87;;;;;;;;;;5088304;28;20024;-72
2021/01/26 08:03:09;;;;;;;17.90;13.93;;;;;;;;;;5076475;28;20016;-73
2021/01/26 08:05:39;;;;;;;18.10;12.90;;;;;;;;;;5087389;28;20047;-74
2021/01/26 08:08:05;;;;;;;22.27;16.70;;;;;;;;;;5081635;28;20028;-74
2021/01/26 08:10:31;;;;;;;20.43;16.27;;;;;;;;;;5091390;28;20028;-73
2021/01/26 08:12:56;;;;;;;18.13;12.20;;;;;;;;;;5091309;28;20455;-73
2021/01/26 08:15:31;;;;;;;23.17;18.20;;;;;;;;;;5086714;28;20020;-73
2021/01/26 08:17:57;;;;;;;26.13;18.33;;;;;;;;;;5090585;28;20020;-72
2021/01/26 08:20:28;;;;;;;21.80;13.80;;;;;;;;;;5089479;28;20061;-73
2021/01/26 08:22:53;;;;;;;23.07;15.00;;;;;;;;;;5091535;28;20028;-70
2021/01/26 08:25:21;;;;;;;24.33;16.30;;;;;;;;;;5083075;28;20032;-69
2021/01/26 08:27:47;;;;;;;20.63;12.97;;;;;;;;;;5088031;28;20047;-68
2021/01/26 08:30:13;;;;;;;22.03;16.77;;;;;;;;;;5088598;28;20081;-67
2021/01/26 08:32:38;;;;;;;25.03;17.17;;;;;;;;;;5091530;28;20012;-70
2021/01/26 08:35:05;;;;;;;20.30;13.87;;;;;;;;;;5088956;28;20020;-70
2021/01/26 08:37:43;;;;;;;21.57;13.60;;;;;;;;;;5090014;28;20097;-73
2021/01/26 08:40:08;;;;;;;21.07;14.40;;;;;;;;;;5093483;28;20066;-70
2021/01/26 08:42:43;;;;;;;14.77;9.70;;;;;;;;;;5094004;28;20028;-72
2021/01/26 08:45:08;;;;;;;20.85;16.80;;;;;;;;;;5092598;28;20121;-68
2021/01/26 08:47:42;;;;;;;20.07;14.80;;;;;;;;;;5092804;28;20049;-70
2021/01/26 08:50:18;;;;;;;8.50;6.50;;;;;;;;;;5086180;28;20394;-70
2021/01/26 08:52:43;;;;;;;16.20;10.93;;;;;;;;;;5094393;28;20032;-70
2021/01/26 08:55:29;;;;;;;13.97;9.10;;;;;;;;;;5089292;28;20017;-71
2021/01/26 08:57:54;;;;;;;6.97;3.80;;;;;;;;;;5082976;28;20058;-71
2021/01/26 09:00:27;;;;;;;19.23;12.13;;;;;;;;;;5094161;28;20044;-69
2021/01/26 09:02:52;;;;;;;16.37;10.73;;;;;;;;;;5094843;28;20391;-69
2021/01/26 09:05:36;;;;;;;16.90;9.77;;;;;;;;;;5091803;28;20081;-69
2021/01/26 09:08:05;;;;;;;17.20;10.87;;;;;;;;;;5093709;28;20024;-70
2021/01/26 09:10:37;;;;;;;16.40;11.80;;;;;;;;;;5094558;28;20016;-71
2021/01/26 09:13:02;;;;;;;16.30;10.87;;;;;;;;;;5094611;28;20062;-70
2021/01/26 09:15:28;;;;;;;15.13;10.90;;;;;;;;;;5089479;28;20051;-69
2021/01/26 09:17:57;;;;;;;14.20;9.67;;;;;;;;;;5092864;28;20401;-71
2021/01/26 09:20:23;;;;;;;10.77;7.63;;;;;;;;;;5093475;28;20016;-71
2021/01/26 09:22:48;;;;;;;13.90;11.20;;;;;;;;;;5091326;28;20027;-68
2021/01/26 09:25:23;;;;;;;15.40;10.43;;;;;;;;;;5075152;28;20032;-70
2021/01/26 09:28:06;;;;;;;3.40;2.73;;;;;;;;;;5083756;28;20590;-70
2021/01/26 09:30:31;;;;;;;14.33;11.37;;;;;;;;;;5094198;28;20178;-71
2021/01/26 09:33:03;;;;;;;12.00;10.40;;;;;;;;;;5092510;28;20028;-71
2021/01/26 09:35:39;;;;;;;14.93;11.57;;;;;;;;;;5090726;28;20482;-71
2021/01/26 09:38:09;;;;;;;15.07;12.30;;;;;;;;;;5088418;28;20059;-70
2021/01/26 09:40:36;;;;;;;12.53;9.77;;;;;;;;;;5084732;28;20401;-71
2021/01/26 09:43:09;;;;;;;13.37;9.97;;;;;;;;;;5091573;28;20020;-70
2021/01/26 09:45:34;;;;;;;7.73;4.60;;;;;;;;;;5077720;28;20020;-69
2021/01/26 09:48:00;;;;;;;9.07;6.93;;;;;;;;;;5080314;28;20020;-69
2021/01/26 09:50:28;;;;;;;11.43;9.20;;;;;;;;;;5092038;28;20110;-70
2021/01/26 09:53:01;;;;;;;13.40;9.50;;;;;;;;;;5093959;28;20024;-70
2021/01/26 09:55:27;;;;;;;12.50;7.37;;;;;;;;;;5090989;28;20054;-70
2021/01/26 09:57:54;;;;;;;13.80;8.83;;;;;;;;;;5093234;28;20028;-70
2021/01/26 10:00:23;;;;;;;9.47;5.47;;;;;;;;;;5090817;28;20020;-70
2021/01/26 10:02:55;;;;;;;12.00;9.17;;;;;;;;;;5087899;28;20073;-69
2021/01/26 10:05:23;;;;;;;11.20;8.40;;;;;;;;;;5089609;28;20100;-71
2021/01/26 10:08:03;;;;;;;12.80;9.63;;;;;;;;;;5092172;28;20027;-70
2021/01/26 10:10:29;;;;;;;11.70;8.43;;;;;;;;;;5092997;28;20043;-71
2021/01/26 10:12:55;;;;;;;13.03;11.10;;;;;;;;;;5087394;28;20467;-71
2021/01/26 10:15:23;;;;;;;11.83;9.07;;;;;;;;;;5068988;28;20242;-70
2021/01/26 10:17:53;;;;;;;13.13;11.47;;;;;;;;;;5089930;28;20020;-70
2021/01/26 10:20:23;;;;;;;7.80;5.97;;;;;;;;;;5087831;28;20028;-70
2021/01/26 10:22:48;;;;;;;11.77;8.57;;;;;;;;;;5072101;28;20027;-71
2021/01/26 10:25:14;;;;;;;14.60;10.80;;;;;;;;;;5085570;28;20374;-70
2021/01/26 10:27:40;;;;;;;5.13;3.60;;;;;;;;;;5093043;28;20128;-70
2021/01/26 10:30:10;;;;;;;14.43;9.53;;;;;;;;;;5093362;28;20051;-72
2021/01/26 10:32:42;;;;;;;14.40;10.43;;;;;;;;;;5093758;28;20054;-71
2021/01/26 10:35:25;;;;;;;9.27;5.73;;;;;;;;;;5089755;28;20039;-70
2021/01/26 10:37:51;;;;;;;10.20;6.90;;;;;;;;;;5091200;28;20016;-71
2021/01/26 10:40:20;;;;;;;14.83;11.40;;;;;;;;;;5093148;28;20099;-70
2021/01/26 10:42:57;;;;;;;13.33;10.33;;;;;;;;;;5092934;28;20027;-69
2021/01/26 10:45:43;;;;;;;12.67;9.50;;;;;;;;;;5090336;28;20090;-71
2021/01/26 10:48:16;;;;;;;13.73;8.80;;;;;;;;;;5092467;28;20479;-70
2021/01/26 10:50:41;;;;;;;11.57;7.13;;;;;;;;;;5091224;28;20020;-69
2021/01/26 10:53:06;;;;;;;13.30;9.40;;;;;;;;;;5091531;28;20020;-70
2021/01/26 10:55:31;;;;;;;13.83;11.23;;;;;;;;;;5089981;28;20112;-69
2021/01/26 10:57:57;;;;;;;5.33;4.13;;;;;;;;;;5092457;28;20020;-70
2021/01/26 11:00:26;;;;;;;12.63;10.23;;;;;;;;;;5092848;28;20069;-70
2021/01/26 11:02:51;;;;;;;12.03;8.23;;;;;;;;;;5090856;28;20103;-71
2021/01/26 11:05:17;;;;;;;14.40;8.87;;;;;;;;;;5088808;28;20108;-70
2021/01/26 11:07:42;;;;;;;13.57;9.47;;;;;;;;;;5091969;28;20054;-70
2021/01/26 11:10:08;;;;;;;12.83;7.47;;;;;;;;;;5092894;28;20122;-71
2021/01/26 11:12:34;;;;;;;12.37;9.37;;;;;;;;;;5092831;28;20382;-71
2021/01/26 11:14:59;;;;;;;9.90;7.17;;;;;;;;;;5089696;28;20024;-71
2021/01/26 11:17:24;;;;;;;12.70;9.37;;;;;;;;;;5092775;28;20462;-73
2021/01/26 11:19:50;;;;;;;9.23;6.67;;;;;;;;;;5091062;28;20453;-71
2021/01/26 11:22:16;;;;;;;8.40;6.07;;;;;;;;;;5083293;28;20035;-72
2021/01/26 11:24:42;;;;;;;7.57;4.53;;;;;;;;;;5092025;28;20028;-71
2021/01/26 11:27:07;;;;;;;13.50;8.97;;;;;;;;;;5088640;28;20024;-73
2021/01/26 11:29:32;;;;;;;8.23;5.03;;;;;;;;;;5092383;28;20482;-72
2021/01/26 11:31:58;;;;;;;14.30;8.37;;;;;;;;;;5091456;28;20031;-71
2021/01/26 11:34:23;;;;;;;10.27;6.23;;;;;;;;;;5090141;28;20157;-72
2021/01/26 11:36:48;;;;;;;4.00;2.97;;;;;;;;;;5087960;28;20103;-71
2021/01/26 11:39:13;;;;;;;3.87;2.73;;;;;;;;;;5080197;28;20117;-72
2021/01/26 11:41:39;;;;;;;6.27;4.03;;;;;;;;;;5092445;28;20150;-72
2021/01/26 11:44:05;;;;;;;8.07;5.83;;;;;;;;;;5090868;28;20032;-73
2021/01/26 11:46:30;;;;;;;4.80;3.47;;;;;;;;;;5087143;28;20101;-73
2021/01/26 11:48:55;;;;;;;10.30;7.67;;;;;;;;;;5087462;28;20024;-73
2021/01/26 11:51:21;;;;;;;10.30;8.40;;;;;;;;;;5091744;28;20020;-72
2021/01/26 11:53:46;;;;;;;10.00;7.67;;;;;;;;;;5091337;28;20047;-70
2021/01/26 11:56:11;;;;;;;12.20;8.57;;;;;;;;;;5087690;28;20382;-71
2021/01/26 11:58:36;;;;;;;11.03;8.63;;;;;;;;;;5082899;28;20047;-69
2021/01/26 12:01:02;;;;;;;4.67;2.03;;;;;;;;;;5081390;28;20031;-72
2021/01/26 12:03:28;;;;;;;13.10;9.90;;;;;;;;;;5087132;28;20016;-72
2021/01/26 12:05:53;;;;;;;12.23;6.57;;;;;;;;;;5075691;28;20031;-72
2021/01/26 12:08:18;;;;;;;4.53;3.00;;;;;;;;;;5083837;28;20043;-71
2021/01/26 12:10:44;;;;;;;9.60;6.83;;;;;;;;;;5082850;28;20017;-68
2021/01/26 12:13:10;;;;;;;9.43;5.33;;;;;;;;;;5080190;28;20032;-73
2021/01/26 12:15:36;;;;;;;9.43;5.40;;;;;;;;;;5082630;28;20028;-72
2021/01/26 12:18:02;;;;;;;8.57;6.27;;;;;;;;;;5095965;28;20072;-72
2021/01/26 12:20:28;;;;;;;7.33;4.97;;;;;;;;;;5095879;28;20094;-72
2021/01/26 12:22:57;;;;;;;13.60;10.23;;;;;;;;;;5093894;28;20020;-72
2021/01/26 12:25:23;;;;;;;13.90;8.53;;;;;;;;;;5091707;28;20399;-72
2021/01/26 12:27:48;;;;;;;8.23;5.17;;;;;;;;;;5094131;28;20048;-71
2021/01/26 12:30:14;;;;;;;13.03;9.33;;;;;;;;;;5095537;28;20028;-72
2021/01/26 12:32:39;;;;;;;18.27;11.47;;;;;;;;;;5095764;28;20028;-72
2021/01/26 12:35:06;;;;;;;14.87;9.87;;;;;;;;;;5091852;28;20020;-72
2021/01/26 12:37:31;;;;;;;7.13;5.13;;;;;;;;;;5095422;28;20063;-72
2021/01/26 12:39:57;;;;;;;11.83;8.53;;;;;;;;;;5095232;28;20020;-72
2021/01/26 12:42:24;;;;;;;11.33;6.60;;;;;;;;;;5094425;28;20027;-72
2021/01/26 12:44:49;;;;;;;11.70;7.93;;;;;;;;;;5094162;28;20024;-72
2021/01/26 12:47:14;;;;;;;12.43;8.33;;;;;;;;;;5093964;28;20451;-72
2021/01/26 12:49:39;;;;;;;11.17;8.07;;;;;;;;;;5093596;28;20028;-72
2021/01/26 12:52:05;;;;;;;15.27;10.63;;;;;;;;;;5095461;28;20442;-73
2021/01/26 12:54:30;;;;;;;16.03;11.20;;;;;;;;;;5093286;28;20032;-72
2021/01/26 12:56:55;;;;;;;17.03;12.23;;;;;;;;;;5092386;28;20501;-74
2021/01/26 12:59:21;;;;;;;17.27;12.33;;;;;;;;;;5093863;28;20020;-72
2021/01/26 13:01:46;;;;;;;17.80;12.90;;;;;;;;;;5080382;28;20024;-72
2021/01/26 13:04:12;;;;;;;18.17;12.67;;;;;;;;;;5075187;28;20463;-73
2021/01/26 13:06:37;;;;;;;10.70;7.47;;;;;;;;;;5089277;28;20039;-73
2021/01/26 13:09:02;;;;;;;15.60;10.73;;;;;;;;;;5094824;28;20473;-74
2021/01/26 13:11:28;;;;;;;13.70;9.83;;;;;;;;;;5093874;28;20032;-74
2021/01/26 13:13:53;;;;;;;8.27;5.60;;;;;;;;;;5093708;28;20015;-72
2021/01/26 13:16:18;;;;;;;12.13;7.63;;;;;;;;;;5088088;28;20047;-70
2021/01/26 13:18:45;;;;;;;18.20;11.63;;;;;;;;;;5093526;28;20475;-70
2021/01/26 13:21:10;;;;;;;16.60;12.23;;;;;;;;;;5094849;28;20020;-69
2021/01/26 13:23:35;;;;;;;12.37;8.30;;;;;;;;;;5094941;28;20020;-70
2021/01/26 13:26:00;;;;;;;16.63;11.83;;;;;;;;;;5090655;28;20031;-69
2021/01/26 13:28:26;;;;;;;16.00;12.00;;;;;;;;;;5093380;28;20059;-70
2021/01/26 13:30:51;;;;;;;19.77;12.40;;;;;;;;;;5094670;28;20359;-71
2021/01/26 13:33:16;;;;;;;18.43;12.77;;;;;;;;;;5094857;28;20028;-71
2021/01/26 13:35:41;;;;;;;12.67;8.57;;;;;;;;;;5089987;28;20016;-70
2021/01/26 13:38:07;;;;;;;13.43;8.40;;;;;;;;;;5091199;28;20023;-70
2021/01/26 13:40:32;;;;;;;11.57;7.47;;;;;;;;;;5094148;28;20044;-70
2021/01/26 13:42:58;;;;;;;19.63;12.40;;;;;;;;;;5093085;28;20475;-70
2021/01/26 13:45:25;;;;;;;18.90;12.40;;;;;;;;;;5090144;28;20566;-71
2021/01/26 13:47:51;;;;;;;11.93;8.13;;;;;;;;;;5094139;28;20077;-70
2021/01/26 13:50:17;;;;;;;12.27;8.77;;;;;;;;;;5094171;28;20020;-70
2021/01/26 13:52:42;;;;;;;13.23;8.20;;;;;;;;;;5093884;28;20462;-70
2021/01/26 13:55:08;;;;;;;17.80;9.23;;;;;;;;;;5091117;28;20095;-71
2021/01/26 13:57:33;;;;;;;13.20;8.77;;;;;;;;;;5077965;28;20021;-70
2021/01/26 13:59:59;;;;;;;9.13;5.37;;;;;;;;;;5090479;28;20362;-70
2021/01/26 14:02:24;;;;;;;9.60;6.33;;;;;;;;;;5094362;28;20066;-70
2021/01/26 14:04:49;;;;;;;10.37;7.60;;;;;;;;;;5092660;28;20046;-70
2021/01/26 14:07:14;;;;;;;11.40;7.90;;;;;;;;;;5091100;28;20028;-70
2021/01/26 14:09:40;;;;;;;20.03;13.47;;;;;;;;;;5092187;28;20069;-70
2021/01/26 14:12:05;;;;;;;20.13;11.80;;;;;;;;;;5092736;28;20077;-70
2021/01/26 14:14:31;;;;;;;16.20;9.53;;;;;;;;;;5093665;28;20032;-70
2021/01/26 14:16:56;;;;;;;11.00;6.37;;;;;;;;;;5090493;28;20020;-70
2021/01/26 14:19:21;;;;;;;14.80;8.60;;;;;;;;;;5093458;28;20058;-70
2021/01/26 14:21:46;;;;;;;26.13;15.87;;;;;;;;;;5087243;28;20407;-71
2021/01/26 14:24:12;;;;;;;25.70;16.87;;;;;;;;;;5085286;28;20386;-72
2021/01/26 14:26:38;;;;;;;16.37;11.33;;;;;;;;;;5084518;28;20023;-71
2021/01/26 14:29:03;;;;;;;18.47;10.60;;;;;;;;;;5085879;28;20099;-72
2021/01/26 14:31:32;;;;;;;19.90;12.33;;;;;;;;;;5085064;28;20559;-71
2021/01/26 14:33:59;;;;;;;15.47;9.13;;;;;;;;;;5089287;28;20028;-72
2021/01/26 14:36:24;;;;;;;18.23;9.13;;;;;;;;;;5081664;28;20027;-70